Aérodrome :
LOGIN :

S'inscrire | Disclaimer

   EN    FR    IT 

 










Légende :    VFR   VFR Marginal   IFR   IFR Intensif   IFR Très Intensif
Visi : 
Plafond : 
>= 8 km
>= 3000ft
5 à 8 km
1000 à 3000 ft
1500m à 5 km
500 à 1000 ft
800 à 1500m
200 à 500 ft
< 800m
< 200 ft
Symboles :   Orages  Brouillard  Fortes neiges  Fortes précipitations  Vent > 20 kt
SIGMETs :   Divers  Orages  Givrage  Turbulence  Onde Orograph.  Cendres Volcan.






- Altitude de l'aérodrome : 157 ft
- Code IATA : LIL


LFQQ - Lille Lesquin

DERNIER METAR :
  • 240500Z AUTO 18014KT 9999 BKN008 OVC012 12/10 Q1011 TEMPO 3000 RA BECMG BKN035

METARs EXPIRÉS :
  • 240430Z AUTO 18014KT 9999 BKN010 BKN016 OVC027 12/10 Q1011 TEMPO 3000 RA BECMG BKN035
  • 240400Z AUTO 19012KT 9999 SCT012 OVC017 12/10 Q1011 TEMPO 3000 RA BKN007
  • 240330Z AUTO 19013KT 9999 FEW019 SCT024 BKN033 12/10 Q1011 TEMPO 3000 RA BKN007
  • 240300Z AUTO 19011KT 9999 SCT027 BKN034 BKN041 12/10 Q1012 TEMPO 3000 RA BKN007
  • 240230Z AUTO 18011KT 9999 FEW031 BKN074 12/10 Q1012 TEMPO 3000 RA BKN007

TAF TAF LFQQ
Valide du 24 à 00h jusqu'au 25 à 06h UTC


232300Z 2400/2506 22010KT 9999 BKN035
TEMPO 2400/2406 3000 RA BKN007
BECMG 2410/2413 19020G30KT
TEMPO 2416/2424 19030G40KT
TEMPO 2500/2506 3000 RA BKN007
ATIS : +33 3 20 16 19 54



MET'MAP, la Météo Aéronautique d'un coup d'oeil ! - Copyright ORBIFLY Décembre 2007 - Disclaimer

ORBIFLY MET'MAP TEAM :

Programmation & Développement : Alexandra Zaïnal
Sur une idée originale de : Baudouin d'Aumeries
Assistance à la programmation : Marc-Olivier Méhu
Soutien technique & logistique : Manuel Goepfert

Contact : metmap@orbifly.com




SOURCES & CREDITS :

   NOAA